sensor_id;sensor_type;location;lat;lon;timestamp;temperature;humidity
32769;DHT22;23049;54.304;8.826;2022-12-16T00:01:07;0.60;99.90
32769;DHT22;23049;54.304;8.826;2022-12-16T00:03:33;0.50;99.90
32769;DHT22;23049;54.304;8.826;2022-12-16T00:05:59;0.50;99.90
32769;DHT22;23049;54.304;8.826;2022-12-16T00:08:28;0.60;99.90
32769;DHT22;23049;54.304;8.826;2022-12-16T00:10:57;0.60;99.90
32769;DHT22;23049;54.304;8.826;2022-12-16T00:13:23;0.60;99.90
32769;DHT22;23049;54.304;8.826;2022-12-16T00:15:48;0.60;99.90
32769;DHT22;23049;54.304;8.826;2022-12-16T00:18:14;0.60;99.90
32769;DHT22;23049;54.304;8.826;2022-12-16T00:20:43;0.60;99.90
32769;DHT22;23049;54.304;8.826;2022-12-16T00:23:10;0.60;99.90
32769;DHT22;23049;54.304;8.826;2022-12-16T00:25:35;0.60;99.90
32769;DHT22;23049;54.304;8.826;2022-12-16T00:28:01;0.70;99.90
32769;DHT22;23049;54.304;8.826;2022-12-16T00:30:26;0.70;99.90
32769;DHT22;23049;54.304;8.826;2022-12-16T00:32:52;0.70;99.90
32769;DHT22;23049;54.304;8.826;2022-12-16T00:35:17;0.70;99.90
32769;DHT22;23049;54.304;8.826;2022-12-16T00:37:43;0.70;99.90
32769;DHT22;23049;54.304;8.826;2022-12-16T00:40:11;0.70;99.90
32769;DHT22;23049;54.304;8.826;2022-12-16T00:42:36;0.70;99.90
32769;DHT22;23049;54.304;8.826;2022-12-16T00:45:02;0.70;99.90
32769;DHT22;23049;54.304;8.826;2022-12-16T00:47:28;0.70;99.90
32769;DHT22;23049;54.304;8.826;2022-12-16T00:49:54;0.70;99.90
32769;DHT22;23049;54.304;8.826;2022-12-16T00:52:19;0.80;99.90
32769;DHT22;23049;54.304;8.826;2022-12-16T00:54:45;0.70;99.90
32769;DHT22;23049;54.304;8.826;2022-12-16T00:57:10;0.80;99.90
32769;DHT22;23049;54.304;8.826;2022-12-16T00:59:36;0.80;99.90
32769;DHT22;23049;54.304;8.826;2022-12-16T01:02:02;0.80;99.90
32769;DHT22;23049;54.304;8.826;2022-12-16T01:04:27;0.80;99.90
32769;DHT22;23049;54.304;8.826;2022-12-16T01:06:53;0.80;99.90
32769;DHT22;23049;54.304;8.826;2022-12-16T01:09:19;0.80;99.90
32769;DHT22;23049;54.304;8.826;2022-12-16T01:11:44;0.80;99.90
32769;DHT22;23049;54.304;8.826;2022-12-16T01:14:10;0.90;99.90
32769;DHT22;23049;54.304;8.826;2022-12-16T01:16:35;0.90;99.90
32769;DHT22;23049;54.304;8.826;2022-12-16T01:19:01;0.90;99.90
32769;DHT22;23049;54.304;8.826;2022-12-16T01:21:26;0.90;99.90
32769;DHT22;23049;54.304;8.826;2022-12-16T01:23:52;0.90;99.90
32769;DHT22;23049;54.304;8.826;2022-12-16T01:26:17;0.90;99.90
32769;DHT22;23049;54.304;8.826;2022-12-16T01:28:43;0.90;99.90
32769;DHT22;23049;54.304;8.826;2022-12-16T01:31:09;0.90;99.90
32769;DHT22;23049;54.304;8.826;2022-12-16T01:33:35;0.90;99.90
32769;DHT22;23049;54.304;8.826;2022-12-16T01:36:01;0.90;99.90
32769;DHT22;23049;54.304;8.826;2022-12-16T01:38:28;0.90;99.90
32769;DHT22;23049;54.304;8.826;2022-12-16T01:40:53;0.90;99.90
32769;DHT22;23049;54.304;8.826;2022-12-16T01:43:20;0.90;99.90
32769;DHT22;23049;54.304;8.826;2022-12-16T01:45:47;0.90;99.90
32769;DHT22;23049;54.304;8.826;2022-12-16T01:48:17;0.90;99.90
32769;DHT22;23049;54.304;8.826;2022-12-16T01:50:45;0.90;99.90
32769;DHT22;23049;54.304;8.826;2022-12-16T01:53:11;0.90;99.90
32769;DHT22;23049;54.304;8.826;2022-12-16T01:55:37;0.90;99.90
32769;DHT22;23049;54.304;8.826;2022-12-16T01:58:23;0.80;99.90
32769;DHT22;23049;54.304;8.826;2022-12-16T02:00:50;0.80;99.90
32769;DHT22;23049;54.304;8.826;2022-12-16T02:03:15;0.80;99.90
32769;DHT22;23049;54.304;8.826;2022-12-16T02:05:41;0.80;99.90
32769;DHT22;23049;54.304;8.826;2022-12-16T02:08:11;0.80;99.90
32769;DHT22;23049;54.304;8.826;2022-12-16T02:18:39;0.70;99.90
32769;DHT22;23049;54.304;8.826;2022-12-16T02:28:56;0.70;99.90
32769;DHT22;23049;54.304;8.826;2022-12-16T02:33:52;0.70;99.90
32769;DHT22;23049;54.304;8.826;2022-12-16T02:39:11;0.70;99.90
32769;DHT22;23049;54.304;8.826;2022-12-16T02:44:04;0.70;99.90
32769;DHT22;23049;54.304;8.826;2022-12-16T02:46:32;0.70;99.90
32769;DHT22;23049;54.304;8.826;2022-12-16T02:49:37;0.70;99.90
32769;DHT22;23049;54.304;8.826;2022-12-16T02:51:53;0.70;99.90
32769;DHT22;23049;54.304;8.826;2022-12-16T02:54:19;0.70;99.90
32769;DHT22;23049;54.304;8.826;2022-12-16T02:59:18;0.80;99.90
32769;DHT22;23049;54.304;8.826;2022-12-16T03:02:01;0.70;99.90
32769;DHT22;23049;54.304;8.826;2022-12-16T03:07:08;0.60;99.90
32769;DHT22;23049;54.304;8.826;2022-12-16T03:09:35;0.50;99.90
32769;DHT22;23049;54.304;8.826;2022-12-16T03:12:02;0.50;99.90
32769;DHT22;23049;54.304;8.826;2022-12-16T03:14:30;0.50;99.90
32769;DHT22;23049;54.304;8.826;2022-12-16T03:16:56;0.40;99.90
32769;DHT22;23049;54.304;8.826;2022-12-16T03:19:22;0.30;99.90
32769;DHT22;23049;54.304;8.826;2022-12-16T03:24:20;0.30;99.90
32769;DHT22;23049;54.304;8.826;2022-12-16T03:26:57;0.30;99.90
32769;DHT22;23049;54.304;8.826;2022-12-16T03:29:34;0.30;99.90
32769;DHT22;23049;54.304;8.826;2022-12-16T03:32:02;0.30;99.90
32769;DHT22;23049;54.304;8.826;2022-12-16T03:34:34;0.30;99.90
32769;DHT22;23049;54.304;8.826;2022-12-16T03:37:04;0.30;99.90
32769;DHT22;23049;54.304;8.826;2022-12-16T03:39:31;0.30;99.90
32769;DHT22;23049;54.304;8.826;2022-12-16T03:41:57;0.30;99.90
32769;DHT22;23049;54.304;8.826;2022-12-16T03:44:23;0.30;99.90
32769;DHT22;23049;54.304;8.826;2022-12-16T03:46:49;0.30;99.90
32769;DHT22;23049;54.304;8.826;2022-12-16T03:49:15;0.30;99.90
32769;DHT22;23049;54.304;8.826;2022-12-16T03:51:41;0.30;99.90
32769;DHT22;23049;54.304;8.826;2022-12-16T03:54:06;0.30;99.90
32769;DHT22;23049;54.304;8.826;2022-12-16T03:56:32;0.40;99.90
32769;DHT22;23049;54.304;8.826;2022-12-16T03:58:57;0.30;99.90
32769;DHT22;23049;54.304;8.826;2022-12-16T04:01:23;0.40;99.90
32769;DHT22;23049;54.304;8.826;2022-12-16T04:03:48;0.30;99.90
32769;DHT22;23049;54.304;8.826;2022-12-16T04:06:14;0.30;99.90
32769;DHT22;23049;54.304;8.826;2022-12-16T04:08:46;0.30;99.90
32769;DHT22;23049;54.304;8.826;2022-12-16T04:11:12;0.20;99.90
32769;DHT22;23049;54.304;8.826;2022-12-16T04:13:56;0.20;99.90
32769;DHT22;23049;54.304;8.826;2022-12-16T04:16:40;0.20;99.90
32769;DHT22;23049;54.304;8.826;2022-12-16T04:19:25;0.20;99.90
32769;DHT22;23049;54.304;8.826;2022-12-16T04:22:12;0.20;99.90
32769;DHT22;23049;54.304;8.826;2022-12-16T04:24:59;0.20;99.90
32769;DHT22;23049;54.304;8.826;2022-12-16T04:27:25;0.20;99.90
32769;DHT22;23049;54.304;8.826;2022-12-16T04:29:52;0.20;99.90
32769;DHT22;23049;54.304;8.826;2022-12-16T04:32:36;0.20;99.90
32769;DHT22;23049;54.304;8.826;2022-12-16T04:35:20;0.20;99.90
32769;DHT22;23049;54.304;8.826;2022-12-16T04:38:05;0.20;99.90
32769;DHT22;23049;54.304;8.826;2022-12-16T04:40:49;0.20;99.90
32769;DHT22;23049;54.304;8.826;2022-12-16T04:43:33;0.20;99.90
32769;DHT22;23049;54.304;8.826;2022-12-16T04:46:19;0.20;99.90
32769;DHT22;23049;54.304;8.826;2022-12-16T04:49:03;0.30;99.90
32769;DHT22;23049;54.304;8.826;2022-12-16T04:51:47;0.30;99.90
32769;DHT22;23049;54.304;8.826;2022-12-16T04:54:31;0.30;99.90
32769;DHT22;23049;54.304;8.826;2022-12-16T04:57:16;0.30;99.90
32769;DHT22;23049;54.304;8.826;2022-12-16T05:00:05;0.40;99.90
32769;DHT22;23049;54.304;8.826;2022-12-16T05:02:49;0.30;99.90
32769;DHT22;23049;54.304;8.826;2022-12-16T05:05:33;0.40;99.90
32769;DHT22;23049;54.304;8.826;2022-12-16T05:08:18;0.40;99.90
32769;DHT22;23049;54.304;8.826;2022-12-16T05:11:02;0.40;99.90
32769;DHT22;23049;54.304;8.826;2022-12-16T05:13:46;0.40;99.90
32769;DHT22;23049;54.304;8.826;2022-12-16T05:16:30;0.40;99.90
32769;DHT22;23049;54.304;8.826;2022-12-16T05:19:14;0.40;99.90
32769;DHT22;23049;54.304;8.826;2022-12-16T05:21:58;0.40;99.90
32769;DHT22;23049;54.304;8.826;2022-12-16T05:24:43;0.40;99.90
32769;DHT22;23049;54.304;8.826;2022-12-16T05:27:27;0.40;99.90
32769;DHT22;23049;54.304;8.826;2022-12-16T05:30:11;0.40;99.90
32769;DHT22;23049;54.304;8.826;2022-12-16T05:32:55;0.40;99.90
32769;DHT22;23049;54.304;8.826;2022-12-16T05:35:40;0.50;99.90
32769;DHT22;23049;54.304;8.826;2022-12-16T05:38:24;0.50;99.90
32769;DHT22;23049;54.304;8.826;2022-12-16T05:41:08;0.50;99.90
32769;DHT22;23049;54.304;8.826;2022-12-16T05:43:52;0.50;99.90
32769;DHT22;23049;54.304;8.826;2022-12-16T05:46:36;0.50;99.90
32769;DHT22;23049;54.304;8.826;2022-12-16T05:49:21;0.50;99.90
32769;DHT22;23049;54.304;8.826;2022-12-16T05:52:05;0.50;99.90
32769;DHT22;23049;54.304;8.826;2022-12-16T05:54:49;0.50;99.90
32769;DHT22;23049;54.304;8.826;2022-12-16T05:57:33;0.50;99.90
32769;DHT22;23049;54.304;8.826;2022-12-16T06:00:17;0.50;99.90
32769;DHT22;23049;54.304;8.826;2022-12-16T06:03:02;0.40;99.90
32769;DHT22;23049;54.304;8.826;2022-12-16T06:05:46;0.40;99.90
32769;DHT22;23049;54.304;8.826;2022-12-16T06:08:30;0.40;99.90
32769;DHT22;23049;54.304;8.826;2022-12-16T06:11:14;0.40;99.90
32769;DHT22;23049;54.304;8.826;2022-12-16T06:13:58;0.30;99.90
32769;DHT22;23049;54.304;8.826;2022-12-16T06:16:43;0.30;99.90
32769;DHT22;23049;54.304;8.826;2022-12-16T06:19:27;0.30;99.90
32769;DHT22;23049;54.304;8.826;2022-12-16T06:22:11;0.30;99.90
32769;DHT22;23049;54.304;8.826;2022-12-16T06:24:55;0.30;99.90
32769;DHT22;23049;54.304;8.826;2022-12-16T06:27:39;0.30;99.90
32769;DHT22;23049;54.304;8.826;2022-12-16T06:30:23;0.40;99.90
32769;DHT22;23049;54.304;8.826;2022-12-16T06:33:08;0.40;99.90
32769;DHT22;23049;54.304;8.826;2022-12-16T06:35:52;0.30;99.90
32769;DHT22;23049;54.304;8.826;2022-12-16T06:38:36;0.30;99.90
32769;DHT22;23049;54.304;8.826;2022-12-16T06:41:20;0.30;99.90
32769;DHT22;23049;54.304;8.826;2022-12-16T06:44:04;0.30;99.90
32769;DHT22;23049;54.304;8.826;2022-12-16T06:46:48;0.20;99.90
32769;DHT22;23049;54.304;8.826;2022-12-16T06:49:33;0.10;99.90
32769;DHT22;23049;54.304;8.826;2022-12-16T06:52:17;0.00;99.90
32769;DHT22;23049;54.304;8.826;2022-12-16T06:55:01;-0.10;99.90
32769;DHT22;23049;54.304;8.826;2022-12-16T06:57:45;-0.10;99.90
32769;DHT22;23049;54.304;8.826;2022-12-16T07:00:29;-0.10;99.90
32769;DHT22;23049;54.304;8.826;2022-12-16T07:03:14;-0.10;99.90
32769;DHT22;23049;54.304;8.826;2022-12-16T07:05:58;-0.10;99.90
32769;DHT22;23049;54.304;8.826;2022-12-16T07:08:42;-0.10;99.90
32769;DHT22;23049;54.304;8.826;2022-12-16T07:11:26;-0.10;99.90
32769;DHT22;23049;54.304;8.826;2022-12-16T07:14:10;-0.10;99.90
32769;DHT22;23049;54.304;8.826;2022-12-16T07:16:54;-0.20;99.90
32769;DHT22;23049;54.304;8.826;2022-12-16T07:19:38;-0.20;99.90
32769;DHT22;23049;54.304;8.826;2022-12-16T07:22:23;-0.20;99.90
32769;DHT22;23049;54.304;8.826;2022-12-16T07:25:07;-0.20;99.90
32769;DHT22;23049;54.304;8.826;2022-12-16T07:27:51;-0.10;99.90
32769;DHT22;23049;54.304;8.826;2022-12-16T07:30:35;-0.10;99.90
32769;DHT22;23049;54.304;8.826;2022-12-16T07:33:19;-0.10;99.90
32769;DHT22;23049;54.304;8.826;2022-12-16T07:36:03;-0.10;99.90
32769;DHT22;23049;54.304;8.826;2022-12-16T07:38:47;0.00;99.90
32769;DHT22;23049;54.304;8.826;2022-12-16T07:41:32;0.00;99.90
32769;DHT22;23049;54.304;8.826;2022-12-16T07:44:16;0.00;99.90
32769;DHT22;23049;54.304;8.826;2022-12-16T07:47:00;0.00;99.90
32769;DHT22;23049;54.304;8.826;2022-12-16T07:49:44;0.00;99.90
32769;DHT22;23049;54.304;8.826;2022-12-16T07:52:29;0.00;99.90
32769;DHT22;23049;54.304;8.826;2022-12-16T07:55:13;0.10;99.90
32769;DHT22;23049;54.304;8.826;2022-12-16T07:57:57;0.10;99.90
32769;DHT22;23049;54.304;8.826;2022-12-16T08:00:41;0.10;99.90
32769;DHT22;23049;54.304;8.826;2022-12-16T08:03:26;0.20;99.90
32769;DHT22;23049;54.304;8.826;2022-12-16T08:06:10;0.20;99.90
32769;DHT22;23049;54.304;8.826;2022-12-16T08:08:54;0.20;99.90
32769;DHT22;23049;54.304;8.826;2022-12-16T08:11:38;0.20;99.90
32769;DHT22;23049;54.304;8.826;2022-12-16T08:14:22;0.30;99.90
32769;DHT22;23049;54.304;8.826;2022-12-16T08:17:06;0.30;99.90
32769;DHT22;23049;54.304;8.826;2022-12-16T08:19:51;0.30;99.90
32769;DHT22;23049;54.304;8.826;2022-12-16T08:22:35;0.40;99.90
32769;DHT22;23049;54.304;8.826;2022-12-16T08:25:19;0.40;99.90
32769;DHT22;23049;54.304;8.826;2022-12-16T08:28:03;0.40;99.90
32769;DHT22;23049;54.304;8.826;2022-12-16T08:30:48;0.50;99.90
32769;DHT22;23049;54.304;8.826;2022-12-16T08:33:32;0.50;99.90
32769;DHT22;23049;54.304;8.826;2022-12-16T08:36:17;0.50;99.90
32769;DHT22;23049;54.304;8.826;2022-12-16T08:39:01;0.50;99.90
32769;DHT22;23049;54.304;8.826;2022-12-16T08:41:45;0.40;99.90
32769;DHT22;23049;54.304;8.826;2022-12-16T08:44:29;0.40;99.90
32769;DHT22;23049;54.304;8.826;2022-12-16T08:47:13;0.40;99.90
32769;DHT22;23049;54.304;8.826;2022-12-16T08:49:57;0.40;99.90
32769;DHT22;23049;54.304;8.826;2022-12-16T08:52:41;0.40;99.90
32769;DHT22;23049;54.304;8.826;2022-12-16T08:55:26;0.40;99.90
32769;DHT22;23049;54.304;8.826;2022-12-16T08:58:10;0.40;99.90
32769;DHT22;23049;54.304;8.826;2022-12-16T09:00:54;0.40;99.90
32769;DHT22;23049;54.304;8.826;2022-12-16T09:03:38;0.30;99.90
32769;DHT22;23049;54.304;8.826;2022-12-16T09:06:22;0.40;99.90
32769;DHT22;23049;54.304;8.826;2022-12-16T09:09:08;0.40;99.90
32769;DHT22;23049;54.304;8.826;2022-12-16T09:11:52;0.40;99.90
32769;DHT22;23049;54.304;8.826;2022-12-16T09:14:36;0.30;99.90
32769;DHT22;23049;54.304;8.826;2022-12-16T09:17:20;0.30;99.90
32769;DHT22;23049;54.304;8.826;2022-12-16T09:20:05;0.30;99.90
32769;DHT22;23049;54.304;8.826;2022-12-16T09:22:49;0.30;99.90
32769;DHT22;23049;54.304;8.826;2022-12-16T09:25:33;0.30;99.90
32769;DHT22;23049;54.304;8.826;2022-12-16T09:28:17;0.30;99.90
32769;DHT22;23049;54.304;8.826;2022-12-16T09:31:01;0.30;99.90
32769;DHT22;23049;54.304;8.826;2022-12-16T09:33:45;0.20;99.90
32769;DHT22;23049;54.304;8.826;2022-12-16T09:36:29;0.20;99.90
32769;DHT22;23049;54.304;8.826;2022-12-16T09:39:13;0.10;99.90
32769;DHT22;23049;54.304;8.826;2022-12-16T09:42:00;0.10;99.90
32769;DHT22;23049;54.304;8.826;2022-12-16T09:44:49;0.10;99.90
32769;DHT22;23049;54.304;8.826;2022-12-16T09:50:39;0.10;99.90
32769;DHT22;23049;54.304;8.826;2022-12-16T09:53:25;0.20;99.90
32769;DHT22;23049;54.304;8.826;2022-12-16T09:56:15;0.20;99.90
32769;DHT22;23049;54.304;8.826;2022-12-16T09:59:05;0.30;99.90
32769;DHT22;23049;54.304;8.826;2022-12-16T10:01:50;0.30;99.90
32769;DHT22;23049;54.304;8.826;2022-12-16T10:04:35;0.40;99.90
32769;DHT22;23049;54.304;8.826;2022-12-16T10:07:22;0.40;99.90
32769;DHT22;23049;54.304;8.826;2022-12-16T10:15:38;0.50;99.90
32769;DHT22;23049;54.304;8.826;2022-12-16T10:18:40;0.50;99.90
32769;DHT22;23049;54.304;8.826;2022-12-16T10:21:31;0.60;99.90
32769;DHT22;23049;54.304;8.826;2022-12-16T10:24:20;0.60;99.90
32769;DHT22;23049;54.304;8.826;2022-12-16T10:27:13;0.60;99.90
32769;DHT22;23049;54.304;8.826;2022-12-16T10:29:57;0.60;99.90
32769;DHT22;23049;54.304;8.826;2022-12-16T10:32:46;0.70;99.90
32769;DHT22;23049;54.304;8.826;2022-12-16T10:35:46;0.60;99.90
32769;DHT22;23049;54.304;8.826;2022-12-16T10:41:20;0.70;99.90
32769;DHT22;23049;54.304;8.826;2022-12-16T10:44:10;0.80;99.90
32769;DHT22;23049;54.304;8.826;2022-12-16T10:46:55;0.70;99.90
32769;DHT22;23049;54.304;8.826;2022-12-16T10:49:39;0.70;99.90
32769;DHT22;23049;54.304;8.826;2022-12-16T10:52:23;0.60;99.90
32769;DHT22;23049;54.304;8.826;2022-12-16T10:55:19;0.60;99.90
32769;DHT22;23049;54.304;8.826;2022-12-16T10:58:10;0.50;99.90
32769;DHT22;23049;54.304;8.826;2022-12-16T11:00:59;0.50;99.90
32769;DHT22;23049;54.304;8.826;2022-12-16T11:03:43;0.50;99.90
32769;DHT22;23049;54.304;8.826;2022-12-16T11:06:35;0.50;99.90
32769;DHT22;23049;54.304;8.826;2022-12-16T11:18:02;0.50;99.90
32769;DHT22;23049;54.304;8.826;2022-12-16T11:21:02;0.50;99.90
32769;DHT22;23049;54.304;8.826;2022-12-16T11:23:46;0.50;99.90
32769;DHT22;23049;54.304;8.826;2022-12-16T11:26:30;0.50;99.90
32769;DHT22;23049;54.304;8.826;2022-12-16T11:29:16;0.40;99.90
32769;DHT22;23049;54.304;8.826;2022-12-16T11:35:18;0.30;99.90
32769;DHT22;23049;54.304;8.826;2022-12-16T11:38:02;0.30;99.90
32769;DHT22;23049;54.304;8.826;2022-12-16T11:40:47;0.30;99.90
32769;DHT22;23049;54.304;8.826;2022-12-16T11:43:32;0.30;99.90
32769;DHT22;23049;54.304;8.826;2022-12-16T11:46:20;0.30;99.90
32769;DHT22;23049;54.304;8.826;2022-12-16T11:49:08;0.30;99.90
32769;DHT22;23049;54.304;8.826;2022-12-16T11:51:57;0.40;99.90
32769;DHT22;23049;54.304;8.826;2022-12-16T11:54:49;0.40;99.90
32769;DHT22;23049;54.304;8.826;2022-12-16T12:00:32;0.40;99.90
32769;DHT22;23049;54.304;8.826;2022-12-16T12:03:21;0.30;99.90
32769;DHT22;23049;54.304;8.826;2022-12-16T12:06:20;0.40;99.90
32769;DHT22;23049;54.304;8.826;2022-12-16T12:09:13;0.40;99.90
32769;DHT22;23049;54.304;8.826;2022-12-16T12:17:41;0.60;99.90
32769;DHT22;23049;54.304;8.826;2022-12-16T12:23:19;0.70;99.90
32769;DHT22;23049;54.304;8.826;2022-12-16T12:26:10;0.70;99.90
32769;DHT22;23049;54.304;8.826;2022-12-16T12:29:41;0.60;99.90
32769;DHT22;23049;54.304;8.826;2022-12-16T12:32:05;0.50;99.90
32769;DHT22;23049;54.304;8.826;2022-12-16T12:37:48;0.50;99.90
32769;DHT22;23049;54.304;8.826;2022-12-16T12:43:42;0.50;99.90
32769;DHT22;23049;54.304;8.826;2022-12-16T12:52:09;0.50;99.90
32769;DHT22;23049;54.304;8.826;2022-12-16T12:57:42;0.30;99.90
32769;DHT22;23049;54.304;8.826;2022-12-16T13:00:29;0.30;99.90
32769;DHT22;23049;54.304;8.826;2022-12-16T13:04:03;0.30;99.90
32769;DHT22;23049;54.304;8.826;2022-12-16T13:06:19;0.30;99.90
32769;DHT22;23049;54.304;8.826;2022-12-16T13:09:21;0.40;99.90
32769;DHT22;23049;54.304;8.826;2022-12-16T13:18:11;0.50;99.90
32769;DHT22;23049;54.304;8.826;2022-12-16T13:20:39;0.50;99.90
32769;DHT22;23049;54.304;8.826;2022-12-16T13:26:10;0.50;99.90
32769;DHT22;23049;54.304;8.826;2022-12-16T13:29:17;0.50;99.90
32769;DHT22;23049;54.304;8.826;2022-12-16T13:32:03;0.60;99.90
32769;DHT22;23049;54.304;8.826;2022-12-16T13:37:53;0.40;99.90
32769;DHT22;23049;54.304;8.826;2022-12-16T13:40:47;0.30;99.90
32769;DHT22;23049;54.304;8.826;2022-12-16T13:46:38;0.30;99.90
32769;DHT22;23049;54.304;8.826;2022-12-16T13:55:20;0.40;99.90
32769;DHT22;23049;54.304;8.826;2022-12-16T13:58:18;0.40;99.90
32769;DHT22;23049;54.304;8.826;2022-12-16T14:01:08;0.40;99.90
32769;DHT22;23049;54.304;8.826;2022-12-16T14:03:52;0.40;99.90
32769;DHT22;23049;54.304;8.826;2022-12-16T14:06:37;0.50;99.90
32769;DHT22;23049;54.304;8.826;2022-12-16T14:12:15;0.60;99.90
32769;DHT22;23049;54.304;8.826;2022-12-16T14:15:06;0.60;99.90
32769;DHT22;23049;54.304;8.826;2022-12-16T14:17:56;0.60;99.90
32769;DHT22;23049;54.304;8.826;2022-12-16T14:20:54;0.70;99.90
32769;DHT22;23049;54.304;8.826;2022-12-16T14:23:51;0.70;99.90
32769;DHT22;23049;54.304;8.826;2022-12-16T14:26:36;0.80;99.90
32769;DHT22;23049;54.304;8.826;2022-12-16T14:29:22;0.90;99.90
32769;DHT22;23049;54.304;8.826;2022-12-16T14:32:23;0.80;99.90
32769;DHT22;23049;54.304;8.826;2022-12-16T14:35:10;0.70;99.90
32769;DHT22;23049;54.304;8.826;2022-12-16T14:37:55;0.70;99.90
32769;DHT22;23049;54.304;8.826;2022-12-16T14:40:39;0.60;99.90
32769;DHT22;23049;54.304;8.826;2022-12-16T14:43:24;0.60;99.90
32769;DHT22;23049;54.304;8.826;2022-12-16T14:49:18;0.60;99.90
32769;DHT22;23049;54.304;8.826;2022-12-16T14:52:11;0.80;99.90
32769;DHT22;23049;54.304;8.826;2022-12-16T14:54:58;0.80;99.90
32769;DHT22;23049;54.304;8.826;2022-12-16T14:57:43;0.90;99.90
32769;DHT22;23049;54.304;8.826;2022-12-16T15:00:27;0.90;99.90
32769;DHT22;23049;54.304;8.826;2022-12-16T15:03:24;1.00;99.90
32769;DHT22;23049;54.304;8.826;2022-12-16T15:06:13;1.00;99.90
32769;DHT22;23049;54.304;8.826;2022-12-16T15:09:01;1.00;99.90
32769;DHT22;23049;54.304;8.826;2022-12-16T15:12:02;1.00;99.90
32769;DHT22;23049;54.304;8.826;2022-12-16T15:14:47;0.90;99.90
32769;DHT22;23049;54.304;8.826;2022-12-16T15:17:50;0.50;99.90
32769;DHT22;23049;54.304;8.826;2022-12-16T15:20:36;0.30;99.90
32769;DHT22;23049;54.304;8.826;2022-12-16T15:23:22;0.30;99.90
32769;DHT22;23049;54.304;8.826;2022-12-16T15:26:07;0.20;99.90
32769;DHT22;23049;54.304;8.826;2022-12-16T15:28:52;0.10;99.90
32769;DHT22;23049;54.304;8.826;2022-12-16T15:31:38;0.20;99.90
32769;DHT22;23049;54.304;8.826;2022-12-16T15:34:23;0.20;99.90
32769;DHT22;23049;54.304;8.826;2022-12-16T15:37:18;0.20;99.90
32769;DHT22;23049;54.304;8.826;2022-12-16T15:40:03;0.20;99.90
32769;DHT22;23049;54.304;8.826;2022-12-16T15:42:51;0.20;99.90
32769;DHT22;23049;54.304;8.826;2022-12-16T15:45:35;0.20;99.90
32769;DHT22;23049;54.304;8.826;2022-12-16T15:48:26;0.20;99.90
32769;DHT22;23049;54.304;8.826;2022-12-16T15:51:21;0.10;99.90
32769;DHT22;23049;54.304;8.826;2022-12-16T15:54:27;-0.10;99.90
32769;DHT22;23049;54.304;8.826;2022-12-16T16:00:21;-0.60;99.90
32769;DHT22;23049;54.304;8.826;2022-12-16T16:03:15;-0.50;99.90
32769;DHT22;23049;54.304;8.826;2022-12-16T16:06:00;-0.40;99.90
32769;DHT22;23049;54.304;8.826;2022-12-16T16:08:49;-0.20;99.90
32769;DHT22;23049;54.304;8.826;2022-12-16T16:11:33;-0.10;99.90
32769;DHT22;23049;54.304;8.826;2022-12-16T16:14:21;-0.10;99.90
32769;DHT22;23049;54.304;8.826;2022-12-16T16:17:42;-0.10;99.90
32769;DHT22;23049;54.304;8.826;2022-12-16T16:20:19;-0.10;99.90
32769;DHT22;23049;54.304;8.826;2022-12-16T16:23:03;0.00;99.90
32769;DHT22;23049;54.304;8.826;2022-12-16T16:25:48;0.00;99.90
32769;DHT22;23049;54.304;8.826;2022-12-16T16:28:33;0.00;99.90
32769;DHT22;23049;54.304;8.826;2022-12-16T16:31:17;0.10;99.90
32769;DHT22;23049;54.304;8.826;2022-12-16T16:34:02;0.10;99.90
32769;DHT22;23049;54.304;8.826;2022-12-16T16:36:51;0.10;99.90
32769;DHT22;23049;54.304;8.826;2022-12-16T16:39:35;0.10;99.90
32769;DHT22;23049;54.304;8.826;2022-12-16T16:42:20;0.10;99.90
32769;DHT22;23049;54.304;8.826;2022-12-16T16:45:08;-0.10;99.90
32769;DHT22;23049;54.304;8.826;2022-12-16T16:48:05;-0.20;99.90
32769;DHT22;23049;54.304;8.826;2022-12-16T16:50:49;-0.50;99.90
32769;DHT22;23049;54.304;8.826;2022-12-16T16:53:34;-0.60;99.90
32769;DHT22;23049;54.304;8.826;2022-12-16T16:56:18;-0.70;99.90
32769;DHT22;23049;54.304;8.826;2022-12-16T16:59:03;-0.70;99.90
32769;DHT22;23049;54.304;8.826;2022-12-16T17:01:47;-0.70;99.90
32769;DHT22;23049;54.304;8.826;2022-12-16T17:04:32;-0.70;99.90
32769;DHT22;23049;54.304;8.826;2022-12-16T17:07:16;-0.60;99.90
32769;DHT22;23049;54.304;8.826;2022-12-16T17:10:00;-0.60;99.90
32769;DHT22;23049;54.304;8.826;2022-12-16T17:12:44;-0.60;99.90
32769;DHT22;23049;54.304;8.826;2022-12-16T17:15:30;-0.70;99.90
32769;DHT22;23049;54.304;8.826;2022-12-16T17:18:14;-0.60;99.90
32769;DHT22;23049;54.304;8.826;2022-12-16T17:20:58;-0.40;99.90
32769;DHT22;23049;54.304;8.826;2022-12-16T17:23:42;-0.10;99.90
32769;DHT22;23049;54.304;8.826;2022-12-16T17:26:27;0.00;99.90
32769;DHT22;23049;54.304;8.826;2022-12-16T17:29:14;0.10;99.90
32769;DHT22;23049;54.304;8.826;2022-12-16T17:32:00;-0.40;99.90
32769;DHT22;23049;54.304;8.826;2022-12-16T17:34:44;-0.60;99.90
32769;DHT22;23049;54.304;8.826;2022-12-16T17:37:28;-0.70;99.90
32769;DHT22;23049;54.304;8.826;2022-12-16T17:40:12;-0.80;99.90
32769;DHT22;23049;54.304;8.826;2022-12-16T17:42:56;-0.80;99.90
32769;DHT22;23049;54.304;8.826;2022-12-16T17:45:41;-0.80;99.90
32769;DHT22;23049;54.304;8.826;2022-12-16T17:48:25;-0.70;99.90
32769;DHT22;23049;54.304;8.826;2022-12-16T17:51:09;-0.60;99.90
32769;DHT22;23049;54.304;8.826;2022-12-16T17:53:53;-0.40;99.90
32769;DHT22;23049;54.304;8.826;2022-12-16T17:56:38;-0.20;99.90
32769;DHT22;23049;54.304;8.826;2022-12-16T17:59:22;-0.30;99.90
32769;DHT22;23049;54.304;8.826;2022-12-16T18:02:07;-0.30;99.90
32769;DHT22;23049;54.304;8.826;2022-12-16T18:04:51;-0.40;99.90
32769;DHT22;23049;54.304;8.826;2022-12-16T18:07:35;-0.50;99.90
32769;DHT22;23049;54.304;8.826;2022-12-16T18:10:19;-0.70;99.90
32769;DHT22;23049;54.304;8.826;2022-12-16T18:13:03;-0.80;99.90
32769;DHT22;23049;54.304;8.826;2022-12-16T18:15:51;-0.90;99.90
32769;DHT22;23049;54.304;8.826;2022-12-16T18:18:35;-0.90;99.90
32769;DHT22;23049;54.304;8.826;2022-12-16T18:21:20;-1.00;99.90
32769;DHT22;23049;54.304;8.826;2022-12-16T18:24:05;-1.10;99.90
32769;DHT22;23049;54.304;8.826;2022-12-16T18:26:49;-1.20;99.90
32769;DHT22;23049;54.304;8.826;2022-12-16T18:29:33;-1.40;99.90
32769;DHT22;23049;54.304;8.826;2022-12-16T18:32:17;-1.50;99.90
32769;DHT22;23049;54.304;8.826;2022-12-16T18:35:02;-1.60;99.90
32769;DHT22;23049;54.304;8.826;2022-12-16T18:37:46;-1.70;99.90
32769;DHT22;23049;54.304;8.826;2022-12-16T18:40:30;-1.70;99.90
32769;DHT22;23049;54.304;8.826;2022-12-16T18:43:14;-1.70;99.90
32769;DHT22;23049;54.304;8.826;2022-12-16T18:45:59;-1.80;99.90
32769;DHT22;23049;54.304;8.826;2022-12-16T18:48:43;-1.90;99.90
32769;DHT22;23049;54.304;8.826;2022-12-16T18:51:27;-1.90;99.90
32769;DHT22;23049;54.304;8.826;2022-12-16T18:54:11;-2.00;99.90
32769;DHT22;23049;54.304;8.826;2022-12-16T18:56:55;-2.10;99.90
32769;DHT22;23049;54.304;8.826;2022-12-16T18:59:40;-2.20;99.90
32769;DHT22;23049;54.304;8.826;2022-12-16T19:02:24;-2.30;99.90
32769;DHT22;23049;54.304;8.826;2022-12-16T19:05:08;-2.40;99.90